Time;durP1;ratioP1;P1;durP2;ratioP2;P2;SDS_P1;SDS_P2;PMS_P1;PMS_P2;Temp;Humidity;BMP_temperature;BMP_pressure;BME280_temperature;BME280_humidity;BME280_pressure;Samples;Min_cycle;Max_cycle;Signal;HPM_P1;HPM_P2
2021/01/15 00:01:07;;;;;;;13.10;7.97;;;26.50;2201.60;;;;;;5076713;28;20119;-72
2021/01/15 00:03:38;;;;;;;10.05;6.88;;;51.20;2227.20;;;;;;5094679;28;20109;-71
2021/01/15 00:06:07;;;;;;;11.45;6.90;;;26.50;2201.60;;;;;;5093857;28;20051;-73
2021/01/15 00:08:38;;;;;;;10.07;6.65;;;51.20;2227.20;;;;;;5093772;28;20030;-71
2021/01/15 00:11:04;;;;;;;12.82;6.88;;;51.20;2227.20;;;;;;5094098;28;20113;-70
2021/01/15 00:13:30;;;;;;;10.93;6.95;;;26.50;2201.60;;;;;;5093134;28;20410;-64
2021/01/15 00:15:56;;;;;;;14.00;7.10;;;26.40;2201.60;;;;;;5102180;28;20154;-64
2021/01/15 00:18:22;;;;;;;8.73;6.15;;;51.20;2227.20;;;;;;5095145;28;20035;-64
2021/01/15 00:20:48;;;;;;;8.88;6.30;;;26.50;2201.60;;;;;;5092310;28;20488;-63
2021/01/15 00:23:17;;;;;;;10.25;6.25;;;26.40;2201.60;;;;;;5108736;28;20023;-63
2021/01/15 00:25:43;;;;;;;;;;;26.50;2201.60;;;;;;5114122;28;20031;-63
2021/01/15 00:28:09;;;;;;;11.30;6.57;;;26.50;2201.60;;;;;;5114349;28;19907;-63
2021/01/15 00:30:34;;;;;;;9.43;6.28;;;26.50;2201.60;;;;;;5095987;28;20497;-61
2021/01/15 00:33:00;;;;;;;12.40;7.72;;;26.50;2201.60;;;;;;5095655;28;20028;-62
2021/01/15 00:35:26;;;;;;;9.48;6.47;;;26.50;2201.60;;;;;;5095674;28;20020;-62
2021/01/15 00:37:51;;;;;;;12.80;7.85;;;51.20;2227.20;;;;;;5095758;28;20081;-62
2021/01/15 00:40:17;;;;;;;11.27;7.75;;;26.50;2201.60;;;;;;5095572;28;20024;-62
2021/01/15 00:42:43;;;;;;;10.35;7.20;;;26.50;2201.60;;;;;;5095176;28;20100;-62
2021/01/15 00:45:09;;;;;;;13.75;7.65;;;26.50;2201.60;;;;;;5095298;28;20020;-65
2021/01/15 00:47:35;;;;;;;11.05;6.80;;;51.20;2227.20;;;;;;5095169;28;20028;-64
2021/01/15 00:50:00;;;;;;;9.70;6.43;;;26.50;2201.60;;;;;;5095799;28;20034;-64
2021/01/15 00:52:26;;;;;;;11.52;6.85;;;51.20;2227.20;;;;;;5095167;28;20024;-64
2021/01/15 00:54:52;;;;;;;11.25;6.55;;;51.20;2227.20;;;;;;5095572;28;20067;-64
2021/01/15 00:57:17;;;;;;;12.55;7.70;;;51.20;2227.20;;;;;;5094845;28;20044;-64
2021/01/15 00:59:43;;;;;;;11.57;7.18;;;51.20;2227.20;;;;;;5104129;28;20023;-65
2021/01/15 01:02:09;;;;;;;11.55;6.78;;;51.20;2227.20;;;;;;5105374;28;20032;-64
2021/01/15 01:04:34;;;;;;;11.88;7.72;;;26.50;2201.60;;;;;;5096780;28;20036;-64
2021/01/15 01:07:00;;;;;;;12.00;6.68;;;26.50;2201.60;;;;;;5095240;28;20035;-65
2021/01/15 01:09:27;;;;;;;13.63;6.97;;;26.50;2201.60;;;;;;5099593;28;20051;-65
2021/01/15 01:11:52;;;;;;;12.45;7.45;;;26.50;2201.60;;;;;;5105323;28;20016;-64
2021/01/15 01:14:18;;;;;;;10.38;6.35;;;26.50;2201.60;;;;;;5092843;28;20020;-68
2021/01/15 01:16:44;;;;;;;12.13;7.38;;;26.40;2201.60;;;;;;5075309;28;20044;-71
2021/01/15 01:19:10;;;;;;;10.27;6.82;;;26.50;2201.60;;;;;;5098429;28;20036;-69
2021/01/15 01:21:36;;;;;;;11.43;7.28;;;26.40;2201.60;;;;;;5113672;28;20028;-63
2021/01/15 01:24:02;;;;;;;11.10;7.40;;;26.40;2201.60;;;;;;5091116;28;20031;-65
2021/01/15 01:26:27;;;;;;;10.80;6.60;;;26.50;2201.60;;;;;;5092200;28;20393;-63
2021/01/15 01:28:53;;;;;;;12.35;7.15;;;26.50;2201.60;;;;;;5092050;28;20020;-63
2021/01/15 01:31:19;;;;;;;10.57;6.78;;;26.40;2201.60;;;;;;5109940;28;20034;-63
2021/01/15 01:33:45;;;;;;;13.35;7.88;;;26.50;2201.60;;;;;;5099208;28;20023;-62
2021/01/15 01:36:12;;;;;;;11.75;7.53;;;51.20;2201.60;;;;;;5112965;28;20076;-62
2021/01/15 01:38:41;;;;;;;10.80;6.70;;;51.20;2201.60;;;;;;5113432;28;20280;-63
2021/01/15 01:41:08;;;;;;;12.60;7.47;;;51.30;2201.60;;;;;;5111523;28;20031;-61
2021/01/15 01:43:35;;;;;;;13.77;7.00;;;51.40;2201.60;;;;;;5109855;28;20049;-61
2021/01/15 01:46:06;;;;;;;12.02;8.15;;;51.40;2176.00;;;;;;5111479;28;20071;-61
2021/01/15 01:48:33;;;;;;;12.18;7.50;;;51.40;2176.00;;;;;;5101599;28;20029;-60
2021/01/15 01:50:59;;;;;;;14.20;6.90;;;51.50;2176.00;;;;;;5111225;28;20016;-62
2021/01/15 01:53:30;;;;;;;12.77;7.13;;;51.50;2176.00;;;;;;5111206;28;20591;-61
2021/01/15 01:55:57;;;;;;;11.85;6.97;;;51.50;2176.00;;;;;;5111463;28;20028;-61
2021/01/15 01:58:24;;;;;;;10.10;7.53;;;51.50;2150.40;;;;;;5106102;28;20020;-61
2021/01/15 02:00:58;;;;;;;12.15;7.38;;;51.50;2176.00;;;;;;5111248;28;20031;-59
2021/01/15 02:03:23;;;;;;;10.85;7.18;;;51.50;2176.00;;;;;;5092634;28;20111;-62
2021/01/15 02:05:50;;;;;;;11.80;7.05;;;51.50;2150.40;;;;;;5055494;28;20135;-60
2021/01/15 02:08:16;;;;;;;14.13;8.35;;;51.40;2150.40;;;;;;5074249;28;20032;-61
2021/01/15 02:10:45;;;;;;;11.90;7.18;;;51.20;2201.60;;;;;;5074193;28;20024;-60
2021/01/15 02:13:29;;;;;;;12.02;8.40;;;51.30;2176.00;;;;;;5073455;28;20482;-65
2021/01/15 02:16:02;;;;;;;10.63;7.15;;;51.20;2176.00;;;;;;5075507;28;20486;-67
2021/01/15 02:18:35;;;;;;;12.43;8.02;;;51.30;2176.00;;;;;;5075432;28;20041;-61
2021/01/15 02:21:21;;;;;;;11.18;7.60;;;51.40;2176.00;;;;;;5076080;28;20024;-64
2021/01/15 02:23:47;;;;;;;9.40;6.68;;;51.40;2176.00;;;;;;5074832;28;20020;-69
2021/01/15 02:26:38;;;;;;;10.40;7.03;;;51.30;2150.40;;;;;;5073705;28;20024;-62
2021/01/15 02:29:03;;;;;;;10.45;7.15;;;51.30;2176.00;;;;;;5072941;28;20486;-61
2021/01/15 02:31:44;;;;;;;11.05;7.13;;;51.30;2176.00;;;;;;5073346;28;20024;-62
2021/01/15 02:34:35;;;;;;;11.43;6.40;;;51.30;2201.60;;;;;;5073149;28;20039;-64
2021/01/15 02:37:17;;;;;;;17.52;8.02;;;51.30;2176.00;;;;;;5073243;28;20098;-60
2021/01/15 02:39:46;;;;;;;10.57;7.25;;;26.50;2176.00;;;;;;5073438;28;20054;-61
2021/01/15 02:42:13;;;;;;;11.30;7.00;;;26.50;2176.00;;;;;;5072903;28;20029;-61
2021/01/15 02:44:42;;;;;;;11.07;6.40;;;26.50;2176.00;;;;;;5073358;28;20020;-60
2021/01/15 02:47:16;;;;;;;11.27;7.60;;;26.50;2176.00;;;;;;5072891;28;20037;-61
2021/01/15 02:49:43;;;;;;;10.27;6.45;;;26.40;2176.00;;;;;;5073211;28;20021;-60
2021/01/15 02:52:10;;;;;;;12.38;7.82;;;26.40;2201.60;;;;;;5072709;28;20125;-60
2021/01/15 02:54:36;;;;;;;9.82;6.90;;;26.30;2201.60;;;;;;5072893;28;20024;-61
2021/01/15 02:57:02;;;;;;;11.05;6.47;;;26.30;2201.60;;;;;;5072687;28;20478;-62
2021/01/15 02:59:28;;;;;;;12.70;6.97;;;26.30;2201.60;;;;;;5072850;28;20497;-61
2021/01/15 03:02:09;;;;;;;12.73;7.03;;;26.30;2201.60;;;;;;5072697;28;20022;-63
2021/01/15 03:04:56;;;;;;;10.95;6.75;;;26.30;2201.60;;;;;;5079734;28;20036;-60
2021/01/15 03:07:25;;;;;;;10.38;6.07;;;26.30;2201.60;;;;;;5093115;28;20077;-61
2021/01/15 03:09:53;;;;;;;;;;;26.30;2176.00;;;;;;5093200;28;20083;-61
2021/01/15 03:12:21;;;;;;;9.48;6.20;;;26.30;2176.00;;;;;;5092547;28;19915;-60
2021/01/15 03:14:47;;;;;;;11.03;6.77;;;26.30;2176.00;;;;;;5092801;28;20355;-61
2021/01/15 03:17:14;;;;;;;12.48;7.60;;;26.20;2201.60;;;;;;5092839;28;20055;-62
2021/01/15 03:19:40;;;;;;;12.10;6.57;;;26.20;2201.60;;;;;;5092793;28;20509;-61
2021/01/15 03:22:24;;;;;;;9.40;6.20;;;26.30;2176.00;;;;;;5092424;28;20111;-60
2021/01/15 03:24:58;;;;;;;12.27;6.60;;;26.20;2201.60;;;;;;5092550;28;20020;-61
2021/01/15 03:27:37;;;;;;;11.73;7.78;;;26.20;2176.00;;;;;;5092862;28;20146;-61
2021/01/15 03:30:04;;;;;;;10.82;6.88;;;26.30;2176.00;;;;;;5092489;28;20077;-60
2021/01/15 03:32:29;;;;;;;10.30;6.43;;;26.30;2176.00;;;;;;5090926;28;20474;-60
2021/01/15 03:34:55;;;;;;;11.43;6.55;;;26.20;2201.60;;;;;;5092836;28;20028;-61
2021/01/15 03:37:21;;;;;;;13.30;7.10;;;26.20;2201.60;;;;;;5092384;28;20036;-60
2021/01/15 03:39:46;;;;;;;11.05;7.22;;;26.40;2176.00;;;;;;5092167;28;20012;-61
2021/01/15 03:42:12;;;;;;;11.68;7.22;;;26.40;2176.00;;;;;;5092367;28;20477;-60
2021/01/15 03:44:38;;;;;;;11.07;7.47;;;26.40;2176.00;;;;;;5092793;28;20485;-61
2021/01/15 03:47:04;;;;;;;12.23;6.75;;;26.40;2176.00;;;;;;5092606;28;20028;-60
2021/01/15 03:49:29;;;;;;;12.40;6.55;;;26.40;2150.40;;;;;;5092715;28;20058;-61
2021/01/15 03:51:55;;;;;;;11.27;6.80;;;26.40;2176.00;;;;;;5092605;28;20113;-60
2021/01/15 03:54:20;;;;;;;12.93;7.35;;;26.40;2176.00;;;;;;5092334;28;20016;-60
2021/01/15 03:56:49;;;;;;;15.00;6.68;;;26.50;2176.00;;;;;;5092120;28;20024;-65
2021/01/15 03:59:14;;;;;;;13.82;7.82;;;26.40;2150.40;;;;;;5092607;28;20077;-60
2021/01/15 04:01:41;;;;;;;10.98;6.63;;;26.40;2176.00;;;;;;5092489;28;20035;-60
2021/01/15 04:04:06;;;;;;;9.80;6.60;;;26.30;2176.00;;;;;;5091894;28;20029;-60
2021/01/15 04:06:33;;;;;;;12.60;7.30;;;26.30;2201.60;;;;;;5092579;28;20024;-60
2021/01/15 04:08:58;;;;;;;10.00;5.93;;;26.20;2201.60;;;;;;5092042;28;20024;-65
2021/01/15 04:11:24;;;;;;;13.18;7.07;;;26.30;2201.60;;;;;;5092273;28;20012;-60
2021/01/15 04:13:50;;;;;;;10.25;6.65;;;26.30;2201.60;;;;;;5092014;28;20035;-60
2021/01/15 04:16:16;;;;;;;10.05;6.22;;;26.20;2201.60;;;;;;5092431;28;20046;-66
2021/01/15 04:18:43;;;;;;;10.80;6.80;;;26.20;2201.60;;;;;;5092401;28;20107;-60
2021/01/15 04:21:09;;;;;;;11.35;6.70;;;26.30;2201.60;;;;;;5092240;28;20028;-61
2021/01/15 04:23:35;;;;;;;10.32;7.35;;;26.40;2176.00;;;;;;5091621;28;20039;-61
2021/01/15 04:26:01;;;;;;;11.35;7.07;;;26.40;2176.00;;;;;;5092311;28;20067;-60
2021/01/15 04:28:27;;;;;;;9.18;5.95;;;26.50;2201.60;;;;;;5091950;28;20020;-61
2021/01/15 04:30:53;;;;;;;10.73;6.90;;;26.40;2176.00;;;;;;5092346;28;20029;-60
2021/01/15 04:33:19;;;;;;;13.23;7.75;;;26.40;2176.00;;;;;;5091783;28;20099;-60
2021/01/15 04:35:45;;;;;;;11.25;7.53;;;26.30;2201.60;;;;;;5091026;28;20029;-67
2021/01/15 04:38:11;;;;;;;11.35;6.53;;;26.30;2201.60;;;;;;5091474;28;20073;-60
2021/01/15 04:40:37;;;;;;;14.57;7.25;;;26.30;2201.60;;;;;;5092041;28;20039;-61
2021/01/15 04:43:05;;;;;;;11.63;7.03;;;26.20;2201.60;;;;;;5091852;28;20532;-60
2021/01/15 04:45:31;;;;;;;12.68;6.85;;;26.00;2201.60;;;;;;5094944;28;20105;-61
2021/01/15 04:47:57;;;;;;;12.95;7.47;;;26.10;2201.60;;;;;;5095400;28;20100;-62
2021/01/15 04:50:23;;;;;;;13.38;7.25;;;25.80;2201.60;;;;;;5095826;28;20028;-63
2021/01/15 04:52:51;;;;;;;11.90;7.72;;;25.80;2201.60;;;;;;5094898;28;20016;-61
2021/01/15 04:55:22;;;;;;;10.55;7.18;;;25.90;2201.60;;;;;;5095753;28;20503;-65
2021/01/15 04:57:52;;;;;;;17.80;8.93;;;25.90;2201.60;;;;;;5095532;28;20035;-63
2021/01/15 05:00:23;;;;;;;13.60;8.02;;;25.80;2201.60;;;;;;5095942;28;20474;-65
2021/01/15 05:02:52;;;;;;;12.68;7.55;;;25.70;2201.60;;;;;;5095269;28;20024;-62
2021/01/15 05:05:27;;;;;;;16.50;9.43;;;25.60;2201.60;;;;;;5095546;28;20101;-62
2021/01/15 05:08:10;;;;;;;14.60;7.80;;;0.90;2201.60;;;;;;5095361;28;20028;-67
2021/01/15 05:10:55;;;;;;;15.88;7.15;;;0.90;2201.60;;;;;;5095096;28;20146;-64
2021/01/15 05:13:21;;;;;;;15.82;8.50;;;0.80;2201.60;;;;;;5094533;28;20020;-62
2021/01/15 05:15:51;;;;;;;18.05;8.40;;;0.80;2201.60;;;;;;5095228;28;20035;-62
2021/01/15 05:18:19;;;;;;;11.98;6.70;;;0.70;2201.60;;;;;;5095002;28;20019;-62
2021/01/15 05:20:45;;;;;;;14.85;7.75;;;0.60;2201.60;;;;;;5095031;28;20106;-62
2021/01/15 05:23:11;;;;;;;12.63;7.03;;;0.50;2201.60;;;;;;5094722;28;20020;-62
2021/01/15 05:25:45;;;;;;;12.80;7.95;;;0.50;2201.60;;;;;;5094618;28;20520;-63
2021/01/15 05:28:11;;;;;;;16.38;8.68;;;0.50;2201.60;;;;;;5094704;28;20016;-63
2021/01/15 05:30:39;;;;;;;16.85;8.40;;;0.40;2201.60;;;;;;5094813;28;20048;-66
2021/01/15 05:33:12;;;;;;;18.88;8.82;;;0.40;2201.60;;;;;;5094776;28;20365;-63
2021/01/15 05:35:50;;;;;;;12.93;7.47;;;0.40;2201.60;;;;;;5094502;28;20021;-62
2021/01/15 05:38:22;;;;;;;12.88;7.65;;;0.30;2201.60;;;;;;5094559;28;20522;-62
2021/01/15 05:40:55;;;;;;;14.52;8.32;;;0.40;2201.60;;;;;;5094521;28;20035;-62
2021/01/15 05:43:33;;;;;;;13.00;8.13;;;0.40;2201.60;;;;;;5094512;28;20058;-62
2021/01/15 05:46:20;;;;;;;13.60;8.13;;;0.40;2201.60;;;;;;5094519;28;20443;-61
2021/01/15 05:48:51;;;;;;;15.20;8.48;;;0.30;2201.60;;;;;;5094392;28;20027;-62
2021/01/15 05:51:32;;;;;;;14.27;8.25;;;0.30;2201.60;;;;;;5094487;28;20024;-63
2021/01/15 05:53:59;;;;;;;12.80;7.78;;;0.30;2201.60;;;;;;5094350;28;20505;-63
2021/01/15 05:56:26;;;;;;;12.25;7.70;;;0.30;2201.60;;;;;;5093560;28;20024;-63
2021/01/15 05:59:09;;;;;;;17.40;8.93;;;0.40;2201.60;;;;;;5094306;28;20066;-63
2021/01/15 06:01:41;;;;;;;15.40;8.02;;;0.40;2201.60;;;;;;5094149;28;20020;-63
2021/01/15 06:04:08;;;;;;;12.77;7.75;;;0.40;2201.60;;;;;;5093907;28;20032;-63
2021/01/15 06:06:35;;;;;;;14.57;8.98;;;0.30;2201.60;;;;;;5094135;28;20392;-63
2021/01/15 06:09:05;;;;;;;17.10;8.70;;;0.30;2201.60;;;;;;5094110;28;20030;-62
2021/01/15 06:11:35;;;;;;;15.65;8.10;;;0.30;2201.60;;;;;;5094333;28;20511;-63
2021/01/15 06:14:02;;;;;;;15.98;8.63;;;0.40;2201.60;;;;;;5093663;28;20035;-62
2021/01/15 06:16:27;;;;;;;19.40;9.73;;;0.40;2201.60;;;;;;5093623;28;20032;-62
2021/01/15 06:19:03;;;;;;;19.13;10.32;;;0.40;2201.60;;;;;;5093666;28;20481;-62
2021/01/15 06:21:31;;;;;;;17.42;9.65;;;0.50;2201.60;;;;;;5093740;28;20032;-63
2021/01/15 06:24:02;;;;;;;15.55;9.02;;;0.50;2201.60;;;;;;5093815;28;20447;-68
2021/01/15 06:26:34;;;;;;;12.68;8.07;;;0.40;2201.60;;;;;;5093384;28;20529;-63
2021/01/15 06:29:12;;;;;;;16.17;8.15;;;0.50;2201.60;;;;;;5093572;28;20028;-66
2021/01/15 06:31:50;;;;;;;19.63;10.95;;;0.50;2201.60;;;;;;5093800;28;20428;-67
2021/01/15 06:34:20;;;;;;;15.52;8.63;;;0.50;2201.60;;;;;;5093399;28;20028;-64
2021/01/15 06:36:49;;;;;;;18.08;10.25;;;0.40;2201.60;;;;;;5093797;28;20032;-62
2021/01/15 06:39:16;;;;;;;15.27;8.80;;;0.40;2201.60;;;;;;5093248;28;20024;-63
2021/01/15 06:41:42;;;;;;;17.20;9.57;;;0.40;2201.60;;;;;;5093606;28;20397;-63
2021/01/15 06:44:13;;;;;;;15.32;9.27;;;0.50;2201.60;;;;;;5094026;28;20028;-62
2021/01/15 06:46:44;;;;;;;17.48;9.88;;;0.50;2201.60;;;;;;5093384;28;20031;-64
2021/01/15 06:49:17;;;;;;;17.02;9.18;;;0.60;2201.60;;;;;;5093448;28;20473;-62
2021/01/15 06:51:55;;;;;;;19.38;9.82;;;0.80;2201.60;;;;;;5093395;28;20046;-62
2021/01/15 06:54:27;;;;;;;15.68;9.45;;;25.60;2201.60;;;;;;5093072;28;20457;-63
2021/01/15 06:57:09;;;;;;;19.27;10.82;;;25.60;2201.60;;;;;;5092951;28;20119;-63
2021/01/15 06:59:37;;;;;;;15.98;9.00;;;25.60;2201.60;;;;;;5093074;28;20016;-62
2021/01/15 07:02:09;;;;;;;14.35;9.20;;;25.70;2201.60;;;;;;5093602;28;20469;-68
2021/01/15 07:04:52;;;;;;;18.23;9.90;;;25.70;2201.60;;;;;;5092669;28;20432;-66
2021/01/15 07:07:17;;;;;;;17.13;9.70;;;25.80;2201.60;;;;;;5092521;28;20028;-62
2021/01/15 07:09:48;;;;;;;20.70;10.10;;;25.80;2201.60;;;;;;5093063;28;20020;-62
2021/01/15 07:12:18;;;;;;;24.20;12.73;;;25.80;2201.60;;;;;;5092623;28;20020;-60
2021/01/15 07:14:44;;;;;;;17.88;11.13;;;25.80;2201.60;;;;;;5092631;28;20410;-62
2021/01/15 07:17:18;;;;;;;19.02;9.38;;;25.80;2201.60;;;;;;5092823;28;20032;-62
2021/01/15 07:19:45;;;;;;;19.15;10.52;;;25.90;2176.00;;;;;;5092822;28;20103;-62
2021/01/15 07:22:19;;;;;;;18.83;10.18;;;25.80;2201.60;;;;;;5092621;28;20024;-70
2021/01/15 07:24:45;;;;;;;20.27;10.85;;;25.80;2201.60;;;;;;5108954;28;20022;-63
2021/01/15 07:27:15;;;;;;;17.58;10.20;;;25.80;2201.60;;;;;;5108662;28;20027;-61
2021/01/15 07:29:48;;;;;;;19.13;11.05;;;25.90;2201.60;;;;;;5106947;28;20039;-61
2021/01/15 07:32:25;;;;;;;19.25;10.98;;;26.00;2150.40;;;;;;5106915;28;20027;-61
2021/01/15 07:34:55;;;;;;;20.27;11.30;;;26.20;2150.40;;;;;;5110623;28;20472;-66
2021/01/15 07:37:26;;;;;;;21.33;11.32;;;26.30;2124.80;;;;;;5104668;28;20039;-64
2021/01/15 07:40:07;;;;;;;20.65;11.38;;;26.30;2124.80;;;;;;5109756;28;20077;-62
2021/01/15 07:42:52;;;;;;;17.63;10.70;;;26.50;2099.20;;;;;;5106813;28;20469;-61
2021/01/15 07:45:24;;;;;;;18.27;11.43;;;26.40;2099.20;;;;;;5110859;28;20559;-62
2021/01/15 07:47:54;;;;;;;19.23;11.10;;;26.50;2099.20;;;;;;5091659;28;20373;-63
2021/01/15 07:50:31;;;;;;;16.58;11.05;;;51.20;2124.80;;;;;;5102065;28;20028;-61
2021/01/15 07:53:18;;;;;;;21.67;10.05;;;51.40;2099.20;;;;;;5092021;28;20020;-61
2021/01/15 07:55:48;;;;;;;19.58;9.65;;;51.50;2099.20;;;;;;5092623;28;20051;-63
2021/01/15 07:58:16;;;;;;;20.65;11.02;;;51.50;2073.60;;;;;;5092433;28;20455;-63
2021/01/15 08:00:43;;;;;;;18.05;10.40;;;51.60;2073.60;;;;;;5092516;28;20035;-61
2021/01/15 08:03:10;;;;;;;16.55;9.85;;;51.60;2073.60;;;;;;5102269;28;20036;-61
2021/01/15 08:05:35;;;;;;;26.02;12.60;;;51.50;2048.00;;;;;;5092095;28;20123;-60
2021/01/15 08:08:16;;;;;;;18.77;10.80;;;51.60;2073.60;;;;;;5092231;28;20103;-63
2021/01/15 08:10:49;;;;;;;19.58;11.70;;;51.50;2073.60;;;;;;5082542;28;20026;-61
2021/01/15 08:13:19;;;;;;;19.40;10.85;;;51.50;2073.60;;;;;;5092247;28;20043;-62
2021/01/15 08:15:45;;;;;;;17.88;10.63;;;51.40;2073.60;;;;;;5092416;28;20107;-64
2021/01/15 08:18:12;;;;;;;19.55;12.43;;;51.40;2073.60;;;;;;5097881;28;20343;-61
2021/01/15 08:20:38;;;;;;;19.20;10.80;;;51.50;2073.60;;;;;;5106891;28;20017;-62
2021/01/15 08:23:03;;;;;;;19.30;10.88;;;51.40;2073.60;;;;;;5095875;28;20035;-59
2021/01/15 08:25:30;;;;;;;20.35;12.32;;;51.30;2099.20;;;;;;5095814;28;20061;-61
2021/01/15 08:27:57;;;;;;;18.60;11.57;;;51.50;2073.60;;;;;;5096215;28;20024;-59
2021/01/15 08:30:24;;;;;;;24.00;11.48;;;51.60;2073.60;;;;;;5096054;28;20481;-59
2021/01/15 08:32:49;;;;;;;19.38;10.43;;;51.80;2022.40;;;;;;5092110;28;20020;-63
2021/01/15 08:35:29;;;;;;;21.38;10.77;;;51.90;2022.40;;;;;;5097740;28;20032;-64
2021/01/15 08:37:57;;;;;;;16.73;9.55;;;51.90;2022.40;;;;;;5098634;28;20123;-64
2021/01/15 08:40:27;;;;;;;18.40;10.67;;;51.70;2022.40;;;;;;5094277;28;20020;-66
2021/01/15 08:42:57;;;;;;;19.35;11.18;;;51.80;2022.40;;;;;;5103662;28;20020;-64
2021/01/15 08:45:25;;;;;;;16.83;9.68;;;51.70;2022.40;;;;;;5097602;28;20123;-68
2021/01/15 08:47:51;;;;;;;21.85;11.57;;;51.60;2022.40;;;;;;5096358;28;20024;-64
2021/01/15 08:50:18;;;;;;;21.88;14.05;;;51.70;2048.00;;;;;;5098872;28;20100;-65
2021/01/15 08:52:44;;;;;;;23.52;12.90;;;51.80;2022.40;;;;;;5111456;28;20020;-65
2021/01/15 08:55:12;;;;;;;25.70;13.00;;;51.90;2022.40;;;;;;5106985;28;20386;-65
2021/01/15 08:57:37;;;;;;;29.65;16.48;;;76.80;1996.80;;;;;;5107868;28;20045;-64
2021/01/15 09:00:13;;;;;;;17.80;11.60;;;77.00;1971.20;;;;;;5101462;28;20028;-68
2021/01/15 09:02:43;;;;;;;22.10;12.18;;;77.10;1920.00;;;;;;5104394;28;20119;-67
2021/01/15 09:05:11;;;;;;;25.33;13.70;;;77.10;1920.00;;;;;;5092641;28;20142;-69
2021/01/15 09:07:47;;;;;;;21.70;12.70;;;77.00;1945.60;;;;;;5095593;28;20016;-60
2021/01/15 09:10:16;;;;;;;27.45;16.50;;;77.20;1920.00;;;;;;5096609;28;20408;-66
2021/01/15 09:12:43;;;;;;;23.33;12.77;;;77.40;1894.40;;;;;;5094637;28;20028;-67
2021/01/15 09:15:19;;;;;;;21.02;12.63;;;77.60;1843.20;;;;;;5095090;28;20100;-60
2021/01/15 09:17:46;;;;;;;20.73;12.60;;;77.70;1843.20;;;;;;5094616;28;20044;-62
2021/01/15 09:20:14;;;;;;;20.83;12.85;;;102.40;1843.20;;;;;;5095213;28;20457;-69
2021/01/15 09:22:39;;;;;;;22.38;13.45;;;102.40;1843.20;;;;;;5097489;28;20111;-57
2021/01/15 09:25:06;;;;;;;25.95;13.82;;;102.50;1843.20;;;;;;5113859;28;20115;-61
2021/01/15 09:27:31;;;;;;;24.40;14.60;;;102.80;1792.00;;;;;;5111160;28;20052;-63
2021/01/15 09:29:57;;;;;;;27.85;14.73;;;103.00;1792.00;;;;;;5102827;28;20113;-63
2021/01/15 09:32:23;;;;;;;33.95;17.33;;;103.00;1792.00;;;;;;5099678;28;20101;-60
2021/01/15 09:34:48;;;;;;;22.13;13.77;;;103.00;1792.00;;;;;;5101161;28;20016;-61
2021/01/15 09:37:14;;;;;;;22.23;12.77;;;103.00;1766.40;;;;;;5106718;28;20421;-64
2021/01/15 09:39:39;;;;;;;24.25;14.07;;;103.00;1766.40;;;;;;5109123;28;20511;-62
2021/01/15 09:42:06;;;;;;;22.92;15.38;;;103.20;1766.40;;;;;;5088246;28;20512;-64
2021/01/15 09:44:32;;;;;;;23.27;13.20;;;103.30;1766.40;;;;;;5110974;28;20481;-62
2021/01/15 09:46:57;;;;;;;25.25;12.65;;;103.10;1766.40;;;;;;5110714;28;20245;-63
2021/01/15 09:49:23;;;;;;;19.85;11.98;;;103.10;1766.40;;;;;;5112971;28;20533;-62
2021/01/15 09:51:50;;;;;;;20.45;12.35;;;103.10;1766.40;;;;;;5111201;28;20027;-63
2021/01/15 09:54:15;;;;;;;21.73;13.40;;;103.20;1740.80;;;;;;5106358;28;20015;-60
2021/01/15 09:56:42;;;;;;;20.92;12.55;;;103.30;1740.80;;;;;;5112332;28;20020;-61
2021/01/15 09:59:12;;;;;;;25.35;13.30;;;128.10;1740.80;;;;;;5107889;28;20375;-61
2021/01/15 10:01:39;;;;;;;21.90;13.68;;;128.00;1740.80;;;;;;5094331;28;20405;-63
2021/01/15 10:04:05;;;;;;;25.40;15.10;;;103.30;1766.40;;;;;;5104933;28;20374;-62
2021/01/15 10:06:35;;;;;;;27.75;14.07;;;128.00;1766.40;;;;;;5093875;28;20111;-61
2021/01/15 10:09:02;;;;;;;23.05;12.07;;;128.10;1766.40;;;;;;5105109;28;20035;-61
2021/01/15 10:11:31;;;;;;;23.13;11.93;;;103.20;1715.20;;;;;;5083162;28;20441;-62
2021/01/15 10:13:59;;;;;;;21.25;12.93;;;103.00;1740.80;;;;;;5093432;28;20012;-62
2021/01/15 10:16:25;;;;;;;20.45;13.23;;;103.30;1740.80;;;;;;5093893;28;20032;-62
2021/01/15 10:18:52;;;;;;;20.48;12.27;;;103.00;1766.40;;;;;;5093665;28;20150;-62
2021/01/15 10:21:22;;;;;;;21.30;13.13;;;103.10;1766.40;;;;;;5093588;28;20027;-62
2021/01/15 10:23:49;;;;;;;20.33;12.40;;;128.10;1766.40;;;;;;5093725;28;20101;-62
2021/01/15 10:26:25;;;;;;;22.42;12.75;;;128.40;1894.40;;;;;;5093625;28;20020;-62
2021/01/15 10:28:56;;;;;;;19.75;12.32;;;128.20;1689.60;;;;;;5093499;28;20008;-61
2021/01/15 10:31:33;;;;;;;18.95;11.35;;;128.10;1715.20;;;;;;5097413;28;20039;-60
2021/01/15 10:34:00;;;;;;;21.75;12.10;;;103.30;1740.80;;;;;;5113685;28;20038;-62
2021/01/15 10:36:26;;;;;;;22.88;11.43;;;103.30;1715.20;;;;;;5107337;28;20039;-62
2021/01/15 10:38:53;;;;;;;18.00;12.20;;;103.20;1715.20;;;;;;5093492;28;20016;-62
2021/01/15 10:41:38;;;;;;;20.17;11.88;;;103.30;1715.20;;;;;;5097238;28;20028;-62
2021/01/15 10:44:06;;;;;;;21.38;12.10;;;128.00;1740.80;;;;;;5112911;28;20024;-61
2021/01/15 10:46:36;;;;;;;21.95;12.13;;;128.00;1740.80;;;;;;5080663;28;20028;-60
2021/01/15 10:49:06;;;;;;;21.00;13.50;;;103.20;1715.20;;;;;;5113444;28;20077;-62
2021/01/15 10:51:32;;;;;;;18.75;12.00;;;103.10;1740.80;;;;;;5113657;28;20020;-61
2021/01/15 10:53:59;;;;;;;21.30;12.70;;;102.90;1740.80;;;;;;5103474;28;20025;-62
2021/01/15 10:56:24;;;;;;;21.73;12.73;;;102.80;1766.40;;;;;;5109367;28;20049;-62
2021/01/15 10:58:51;;;;;;;23.77;12.95;;;102.80;1766.40;;;;;;5113267;28;20027;-62
2021/01/15 11:01:17;;;;;;;21.67;12.82;;;102.80;1792.00;;;;;;5113880;28;20024;-63
2021/01/15 11:03:45;;;;;;;23.42;13.63;;;102.60;1792.00;;;;;;5113360;28;20028;-63
2021/01/15 11:06:19;;;;;;;26.10;14.23;;;102.50;1792.00;;;;;;5113700;28;20062;-61
2021/01/15 11:08:44;;;;;;;24.58;12.32;;;102.50;1792.00;;;;;;5113220;28;20020;-62
2021/01/15 11:11:10;;;;;;;21.88;12.68;;;102.40;1817.60;;;;;;5102264;28;20031;-61
2021/01/15 11:13:36;;;;;;;28.33;14.50;;;77.30;1868.80;;;;;;5106667;28;20063;-62
2021/01/15 11:16:01;;;;;;;22.73;12.38;;;77.50;1868.80;;;;;;5101856;28;20026;-62
2021/01/15 11:18:27;;;;;;;22.15;13.73;;;77.50;1868.80;;;;;;5098682;28;20039;-62
2021/01/15 11:20:53;;;;;;;22.17;12.63;;;77.40;1894.40;;;;;;5113421;28;20012;-62
2021/01/15 11:23:18;;;;;;;24.05;15.18;;;77.40;1894.40;;;;;;5113087;28;20473;-62
2021/01/15 11:25:44;;;;;;;28.42;13.68;;;77.70;1868.80;;;;;;5112948;28;20385;-62
2021/01/15 11:28:10;;;;;;;22.38;12.80;;;77.60;1868.80;;;;;;5113018;28;20069;-61
2021/01/15 11:30:36;;;;;;;19.77;12.18;;;77.70;1868.80;;;;;;5113064;28;20039;-62
2021/01/15 11:33:02;;;;;;;19.40;11.93;;;102.50;1817.60;;;;;;5113130;28;20039;-62
2021/01/15 11:35:28;;;;;;;21.95;13.68;;;77.70;1843.20;;;;;;5112879;28;20051;-61
2021/01/15 11:37:58;;;;;;;22.52;13.38;;;77.60;1868.80;;;;;;5113172;28;20028;-61
2021/01/15 11:40:25;;;;;;;23.35;14.07;;;102.40;1868.80;;;;;;5113155;28;20092;-61
2021/01/15 11:42:57;;;;;;;21.80;13.77;;;102.40;1868.80;;;;;;5112874;28;20453;-62
2021/01/15 11:45:23;;;;;;;19.95;13.90;;;102.70;1817.60;;;;;;5101088;28;20063;-61
2021/01/15 11:47:56;;;;;;;21.27;14.15;;;102.90;1817.60;;;;;;5110240;28;20016;-62
2021/01/15 11:50:23;;;;;;;23.17;14.50;;;128.00;1792.00;;;;;;5112328;28;20012;-62
2021/01/15 11:52:56;;;;;;;20.85;12.82;;;128.50;1740.80;;;;;;5078138;28;20470;-62
2021/01/15 11:55:23;;;;;;;22.83;13.93;;;128.70;1715.20;;;;;;5096634;28;20432;-63
2021/01/15 11:57:52;;;;;;;21.90;14.02;;;153.80;1664.00;;;;;;5096118;28;20040;-62
2021/01/15 12:00:22;;;;;;;;;;;153.90;1638.40;;;;;;5096832;28;20074;-63
2021/01/15 12:02:48;;;;;;;19.83;12.55;;;154.00;1612.80;;;;;;5096616;28;19911;-62
2021/01/15 12:05:15;;;;;;;24.33;13.07;;;153.70;1664.00;;;;;;5098150;28;20227;-67
2021/01/15 12:07:40;;;;;;;17.98;11.10;;;153.70;1638.40;;;;;;5096357;28;20028;-62
2021/01/15 12:10:08;;;;;;;14.23;9.23;;;128.50;1689.60;;;;;;5096434;28;20024;-62
2021/01/15 12:12:40;;;;;;;21.88;11.90;;;128.70;1664.00;;;;;;5100621;28;20038;-64
2021/01/15 12:15:08;;;;;;;19.95;11.65;;;153.70;1638.40;;;;;;5116402;28;20098;-63
2021/01/15 12:17:34;;;;;;;17.55;12.27;;;153.90;1612.80;;;;;;5102974;28;20028;-62
2021/01/15 12:20:00;;;;;;;21.52;12.55;;;128.90;1664.00;;;;;;5116439;28;20027;-62
2021/01/15 12:22:26;;;;;;;18.98;12.02;;;128.80;1664.00;;;;;;5116450;28;20404;-62